Time;durP1;ratioP1;P1;durP2;ratioP2;P2;SDS_P1;SDS_P2;PMS_P1;PMS_P2;Temp;Humidity;BMP_temperature;BMP_pressure;BME280_temperature;BME280_humidity;BME280_pressure;Samples;Min_cycle;Max_cycle;Signal;HPM_P1;HPM_P2
2022/11/24 00:01:48;;;;;;;0.00;0.00;;;;;;;0.22;100.00;99775.16;5021111;28;20033;-74
2022/11/24 00:04:13;;;;;;;0.00;0.00;;;;;;;0.18;100.00;99781.09;5021351;28;20049;-74
2022/11/24 00:06:39;;;;;;;0.00;0.00;;;;;;;0.12;100.00;99788.75;5019103;28;20044;-74
2022/11/24 00:09:05;;;;;;;0.00;0.00;;;;;;;0.04;100.00;99774.72;5023369;28;20036;-74
2022/11/24 00:11:33;;;;;;;0.00;0.00;;;;;;;-0.03;100.00;99774.56;5023149;28;20046;-75
2022/11/24 00:13:58;;;;;;;0.00;0.00;;;;;;;-0.11;100.00;99777.81;5024841;28;20117;-74
2022/11/24 00:16:26;;;;;;;0.00;0.00;;;;;;;-0.19;100.00;99780.19;5022990;28;20548;-74
2022/11/24 00:18:53;;;;;;;11.38;10.82;;;;;;;-0.25;100.00;99785.25;5023200;28;20408;-74
2022/11/24 00:21:20;;;;;;;2.87;2.67;;;;;;;-0.31;100.00;99777.31;5026091;28;20029;-74
2022/11/24 00:23:47;;;;;;;2.00;1.90;;;;;;;-0.42;100.00;99792.56;5023143;28;20124;-74
2022/11/24 00:26:14;;;;;;;1.70;1.60;;;;;;;-0.53;100.00;99784.50;5024425;28;20037;-74
2022/11/24 00:28:41;;;;;;;2.03;1.90;;;;;;;-0.60;100.00;99787.81;5008126;28;20630;-75
2022/11/24 00:31:34;;;;;;;2.30;2.10;;;;;;;-0.65;100.00;99794.56;5023136;28;20408;-74
2022/11/24 00:34:01;;;;;;;1.25;1.17;;;;;;;-0.70;100.00;99799.63;5019601;28;20136;-74
2022/11/24 00:36:28;;;;;;;0.50;0.50;;;;;;;-0.74;100.00;99795.19;5018062;28;20033;-74
2022/11/24 00:38:55;;;;;;;0.33;0.33;;;;;;;-0.74;100.00;99794.31;5023644;28;20049;-74
2022/11/24 00:41:22;;;;;;;0.40;0.40;;;;;;;-0.78;100.00;99800.25;5023844;28;20033;-74
2022/11/24 00:43:47;;;;;;;0.30;0.30;;;;;;;-0.81;100.00;99797.56;5024889;28;20073;-74
2022/11/24 00:46:12;;;;;;;0.30;0.30;;;;;;;-0.84;100.00;99807.84;5022070;28;20092;-74
2022/11/24 00:48:38;;;;;;;0.20;0.20;;;;;;;-0.88;100.00;99814.66;5025517;28;20072;-74
2022/11/24 00:51:06;;;;;;;0.10;0.10;;;;;;;-0.90;100.00;99812.03;5018322;28;20083;-74
2022/11/24 00:53:31;;;;;;;0.10;0.10;;;;;;;-0.90;100.00;99819.78;5023675;28;20040;-74
2022/11/24 00:55:57;;;;;;;0.10;0.10;;;;;;;-0.91;100.00;99818.03;5023038;28;20388;-74
2022/11/24 00:58:23;;;;;;;0.10;0.10;;;;;;;-0.95;100.00;99815.31;5024644;28;20456;-74
2022/11/24 01:00:50;;;;;;;0.10;0.10;;;;;;;-1.02;100.00;99811.69;5022066;28;20128;-74
2022/11/24 01:03:16;;;;;;;0.00;0.00;;;;;;;-1.02;100.00;99814.28;5022560;28;20029;-74
2022/11/24 01:05:42;;;;;;;0.00;0.00;;;;;;;-1.04;100.00;99815.94;5023776;28;20095;-74
2022/11/24 01:08:07;;;;;;;0.00;0.00;;;;;;;-1.03;100.00;99814.22;5019639;28;20034;-73
2022/11/24 01:10:33;;;;;;;0.00;0.00;;;;;;;-1.05;100.00;99819.34;5023272;28;20038;-73
2022/11/24 01:12:59;;;;;;;0.00;0.00;;;;;;;-1.02;100.00;99826.31;5023604;28;20038;-74
2022/11/24 01:15:25;;;;;;;0.00;0.00;;;;;;;-1.01;100.00;99831.56;5024719;28;20059;-74
2022/11/24 01:17:50;;;;;;;0.00;0.00;;;;;;;-0.99;100.00;99834.22;5023705;28;20036;-74
2022/11/24 01:20:16;;;;;;;0.00;0.00;;;;;;;-1.01;100.00;99841.94;5022574;28;20045;-74
2022/11/24 01:22:41;;;;;;;0.00;0.00;;;;;;;-0.91;100.00;99837.91;5023494;28;20041;-73
2022/11/24 01:25:09;;;;;;;0.00;0.00;;;;;;;-0.79;100.00;99847.72;5023580;28;20037;-74
2022/11/24 01:27:34;;;;;;;0.00;0.00;;;;;;;-0.70;100.00;99845.41;5021416;28;20045;-74
2022/11/24 01:30:00;;;;;;;0.00;0.00;;;;;;;-0.54;100.00;99838.94;5024875;28;20407;-74
2022/11/24 01:32:25;;;;;;;0.00;0.00;;;;;;;-0.38;100.00;99841.09;5021542;28;20033;-75
2022/11/24 01:34:50;;;;;;;0.00;0.00;;;;;;;-0.26;100.00;99843.16;5022154;28;20042;-75
2022/11/24 01:37:16;;;;;;;0.00;0.00;;;;;;;-0.15;100.00;99844.28;5022249;28;20044;-75
2022/11/24 01:39:41;;;;;;;0.00;0.00;;;;;;;-0.06;100.00;99844.50;5006907;28;20041;-75
2022/11/24 01:42:06;;;;;;;0.00;0.00;;;;;;;0.00;100.00;99843.81;5021877;28;20045;-75
2022/11/24 01:44:32;;;;;;;0.00;0.00;;;;;;;0.03;100.00;99845.56;5021795;28;20063;-75
2022/11/24 01:47:05;;;;;;;0.00;0.00;;;;;;;0.01;100.00;99844.69;5006498;28;20169;-75
2022/11/24 01:49:45;;;;;;;0.00;0.00;;;;;;;-0.03;100.00;99848.91;5022819;28;20045;-75
2022/11/24 01:52:15;;;;;;;0.00;0.00;;;;;;;-0.06;100.00;99854.00;5017995;28;20386;-75
2022/11/24 01:54:53;;;;;;;0.00;0.00;;;;;;;-0.13;100.00;99850.41;5022666;28;20132;-75
2022/11/24 01:57:25;;;;;;;0.00;0.00;;;;;;;-0.21;100.00;99854.47;5017049;28;20500;-75
2022/11/24 01:59:56;;;;;;;0.00;0.00;;;;;;;-0.36;100.00;99849.78;5022455;28;20029;-75
2022/11/24 02:02:25;;;;;;;0.00;0.00;;;;;;;-0.46;100.00;99858.16;5021292;28;20029;-75
2022/11/24 02:04:51;;;;;;;0.00;0.00;;;;;;;-0.55;100.00;99852.69;5024042;28;20115;-75
2022/11/24 02:07:17;;;;;;;0.00;0.00;;;;;;;-0.58;100.00;99858.69;5019842;28;20052;-75
2022/11/24 02:09:48;;;;;;;0.00;0.00;;;;;;;-0.69;100.00;99863.56;5022204;28;20447;-75
2022/11/24 02:12:13;;;;;;;0.00;0.00;;;;;;;-0.77;100.00;99857.28;5021069;28;20038;-75
2022/11/24 02:14:41;;;;;;;0.00;0.00;;;;;;;-0.76;100.00;99860.75;5021424;28;20040;-75
2022/11/24 02:17:07;;;;;;;0.00;0.00;;;;;;;-0.80;100.00;99853.75;5017425;28;20038;-75
2022/11/24 02:19:47;;;;;;;0.00;0.00;;;;;;;-0.92;100.00;99860.34;5022787;28;20044;-75
2022/11/24 02:22:26;;;;;;;0.00;0.00;;;;;;;-0.98;100.00;99865.31;5023954;28;20034;-75
2022/11/24 02:25:02;;;;;;;0.00;0.00;;;;;;;-1.02;100.00;99866.09;5022530;28;20040;-74
2022/11/24 02:27:27;;;;;;;0.00;0.00;;;;;;;-1.05;100.00;99867.69;5015995;28;20040;-75
2022/11/24 02:29:52;;;;;;;0.00;0.00;;;;;;;-1.10;100.00;99872.75;5021022;28;20118;-74
2022/11/24 02:32:19;;;;;;;0.00;0.00;;;;;;;-1.15;100.00;99869.16;5022186;28;20060;-74
2022/11/24 02:34:44;;;;;;;0.00;0.00;;;;;;;-1.23;100.00;99866.31;5022504;28;20033;-75
2022/11/24 02:37:10;;;;;;;0.00;0.00;;;;;;;-1.24;100.00;99863.66;5016057;28;20120;-75
2022/11/24 02:39:35;;;;;;;0.00;0.00;;;;;;;-1.28;100.00;99869.56;5021598;28;20033;-75
2022/11/24 02:42:05;;;;;;;0.00;0.00;;;;;;;-1.32;100.00;99864.31;5020382;28;20120;-74
2022/11/24 02:44:40;;;;;;;0.00;0.00;;;;;;;-1.37;100.00;99867.59;5021592;28;20040;-75
2022/11/24 02:47:09;;;;;;;0.00;0.00;;;;;;;-1.43;100.00;99870.88;5019868;28;20030;-75
2022/11/24 02:49:35;;;;;;;0.00;0.00;;;;;;;-1.44;100.00;99868.22;5015775;28;20040;-75
2022/11/24 02:52:01;;;;;;;0.00;0.00;;;;;;;-1.45;100.00;99867.34;5022371;28;20029;-75
2022/11/24 02:54:27;;;;;;;0.00;0.00;;;;;;;-1.45;100.00;99866.47;5021622;28;20049;-75
2022/11/24 02:56:52;;;;;;;1.67;1.60;;;;;;;-1.47;100.00;99866.41;5020600;28;20034;-75
2022/11/24 02:59:18;;;;;;;1999.90;999.90;;;;;;;-1.51;100.00;99867.16;5022279;28;20039;-75
2022/11/24 03:01:43;;;;;;;1999.90;999.90;;;;;;;-1.55;100.00;99867.88;5005492;28;20064;-75
2022/11/24 03:04:08;;;;;;;1999.90;999.90;;;;;;;-1.57;100.00;99869.56;4987263;28;20496;-75
2022/11/24 03:06:34;;;;;;;1999.90;999.90;;;;;;;-1.59;100.00;99868.63;5018506;28;20497;-75
2022/11/24 03:08:59;;;;;;;1999.90;999.90;;;;;;;-1.58;100.00;99862.63;5021319;28;20060;-75
2022/11/24 03:11:24;;;;;;;1999.90;999.90;;;;;;;-1.63;100.00;99864.19;5020923;28;20041;-75
2022/11/24 03:13:50;;;;;;;1999.90;999.90;;;;;;;-1.67;100.00;99862.34;5022278;28;20068;-75
2022/11/24 03:16:15;;;;;;;1999.90;999.90;;;;;;;-1.66;100.00;99866.66;5021030;28;20512;-75
2022/11/24 03:18:41;;;;;;;1999.90;999.90;;;;;;;-1.63;100.00;99871.94;5025892;28;20056;-74
2022/11/24 03:21:06;;;;;;;1999.90;999.90;;;;;;;-1.63;100.00;99874.53;5020130;28;20451;-75
2022/11/24 03:23:31;;;;;;;1999.90;999.90;;;;;;;-1.63;100.00;99874.53;5019667;28;20038;-75
2022/11/24 03:26:12;;;;;;;1999.90;999.90;;;;;;;-1.63;100.00;99874.53;5020830;28;20571;-75
2022/11/24 03:28:38;;;;;;;1999.90;999.90;;;;;;;-1.69;100.00;99884.69;5016844;28;20072;-75
2022/11/24 03:31:04;;;;;;;1999.90;999.90;;;;;;;-1.71;100.00;99881.16;5021758;28;20484;-75
2022/11/24 03:33:29;;;;;;;1999.90;999.90;;;;;;;-1.75;100.00;99885.38;5021382;28;20038;-75
2022/11/24 03:35:55;;;;;;;1999.90;999.90;;;;;;;-1.80;100.00;99887.81;5020108;28;20034;-75
2022/11/24 03:38:20;;;;;;;1999.90;999.90;;;;;;;-1.81;100.00;99886.06;5018948;28;20072;-75
2022/11/24 03:40:46;;;;;;;1999.90;999.90;;;;;;;-1.80;100.00;99881.75;5025886;28;20476;-75
2022/11/24 03:43:11;;;;;;;1999.90;999.90;;;;;;;-1.81;100.00;99891.22;5023649;28;20041;-75
2022/11/24 03:45:36;;;;;;;1999.90;999.90;;;;;;;-1.83;100.00;99892.88;5025619;28;20053;-75
2022/11/24 03:48:02;;;;;;;1999.90;999.90;;;;;;;-1.82;100.00;99894.63;5025059;28;20099;-75
2022/11/24 03:50:27;;;;;;;1999.90;999.90;;;;;;;-1.82;100.00;99896.34;5025337;28;20034;-75
2022/11/24 03:52:52;;;;;;;1999.90;999.90;;;;;;;-1.82;100.00;99896.34;5024025;28;20026;-75
2022/11/24 03:55:18;;;;;;;1999.90;999.90;;;;;;;-1.90;100.00;99902.97;4985783;28;20034;-75
2022/11/24 03:57:43;;;;;;;1999.90;999.90;;;;;;;-1.99;100.00;99901.84;5024380;28;20492;-75
2022/11/24 04:00:09;;;;;;;1999.90;999.90;;;;;;;-2.05;100.00;99896.44;5025836;28;20061;-75
2022/11/24 04:02:35;;;;;;;1999.90;999.90;;;;;;;-2.00;100.00;99904.34;5024324;28;20030;-75
2022/11/24 04:05:00;;;;;;;1999.90;999.90;;;;;;;-1.95;100.00;99896.75;5023518;28;20072;-74
2022/11/24 04:07:25;;;;;;;1999.90;999.90;;;;;;;-2.00;100.00;99904.34;5024283;28;20116;-75
2022/11/24 04:09:51;;;;;;;1999.90;999.90;;;;;;;-2.02;100.00;99906.00;5026219;28;20053;-74
2022/11/24 04:15:00;;;;;;;1999.90;999.90;;;;;;;-2.06;100.00;99917.09;5021044;28;20034;-74
2022/11/24 04:17:27;;;;;;;1999.90;999.90;;;;;;;-2.10;100.00;99920.38;5025786;28;20087;-74
2022/11/24 04:19:52;;;;;;;1999.90;999.90;;;;;;;-2.07;100.00;99923.06;5023185;28;20080;-74
2022/11/24 04:22:18;;;;;;;1999.90;999.90;;;;;;;-1.97;100.00;99922.56;5024947;28;20434;-74
2022/11/24 04:24:43;;;;;;;1999.90;999.90;;;;;;;-1.92;100.00;99922.72;5022053;28;20427;-74
2022/11/24 04:27:08;;;;;;;1999.90;999.90;;;;;;;-1.86;100.00;99921.22;5024757;28;20041;-74
2022/11/24 04:29:34;;;;;;;1999.90;999.90;;;;;;;-1.78;100.00;99918.91;5025443;28;20142;-74
2022/11/24 04:31:59;;;;;;;1999.90;999.90;;;;;;;-1.70;100.00;99919.13;5024771;28;20511;-74
2022/11/24 04:34:24;;;;;;;1999.90;999.90;;;;;;;-1.61;100.00;99924.63;5022602;28;20041;-74
2022/11/24 04:36:50;;;;;;;1999.90;999.90;;;;;;;-1.53;100.00;99923.16;5021365;28;20038;-75
2022/11/24 04:39:15;;;;;;;1999.90;999.90;;;;;;;-1.44;100.00;99925.16;5024551;28;20049;-74
2022/11/24 04:41:40;;;;;;;1999.90;999.90;;;;;;;-1.47;100.00;99933.69;5024082;28;20112;-75
2022/11/24 04:44:06;;;;;;;1999.90;999.90;;;;;;;-1.47;100.00;99928.53;5023240;28;20144;-75
2022/11/24 04:46:31;;;;;;;1999.90;999.90;;;;;;;-1.51;100.00;99934.44;5024789;28;20029;-75
2022/11/24 04:48:56;;;;;;;1999.90;999.90;;;;;;;-1.41;100.00;99933.06;5020828;28;20108;-75
2022/11/24 04:51:21;;;;;;;1999.90;999.90;;;;;;;-1.31;100.00;99935.09;5021482;28;20424;-75
2022/11/24 04:53:48;;;;;;;1999.90;999.90;;;;;;;-1.29;100.00;99943.78;5022720;28;20491;-74
2022/11/24 04:56:31;;;;;;;1999.90;999.90;;;;;;;-1.25;100.00;99949.94;5023538;28;20047;-75
2022/11/24 04:58:56;;;;;;;;;;;;;;;-1.27;100.00;99956.78;5026236;28;20071;-76
2022/11/24 05:01:21;;;;;;;1999.90;999.90;;;;;;;-1.30;100.00;99964.47;5025257;28;19956;-74
2022/11/24 05:03:47;;;;;;;1999.90;999.90;;;;;;;-1.32;100.00;99964.41;5023503;28;20589;-75
2022/11/24 05:06:12;;;;;;;1999.90;999.90;;;;;;;-1.32;100.00;99964.41;5021990;28;20484;-75
2022/11/24 05:08:37;;;;;;;37.37;35.57;;;;;;;-1.34;100.00;99966.94;5022518;28;20029;-75
2022/11/24 05:11:05;;;;;;;23.07;21.87;;;;;;;-1.34;100.00;99966.94;5021483;28;20026;-75
2022/11/24 05:13:31;;;;;;;25.93;24.60;;;;;;;-1.36;100.00;99968.59;5016674;28;20026;-75
2022/11/24 05:15:56;;;;;;;33.10;31.47;;;;;;;-1.40;100.00;99971.03;5023388;28;20033;-75
2022/11/24 05:18:22;;;;;;;28.07;26.60;;;;;;;-1.39;100.00;99973.69;5021943;28;20037;-75
2022/11/24 05:20:48;;;;;;;22.27;21.07;;;;;;;-1.39;100.00;99967.59;5022433;28;20040;-75
2022/11/24 05:23:14;;;;;;;22.97;21.77;;;;;;;-1.42;100.00;99976.16;5022811;28;20396;-75
2022/11/24 05:25:39;;;;;;;23.37;22.13;;;;;;;-1.42;100.00;99983.91;5018975;28;20038;-75
2022/11/24 05:28:08;;;;;;;35.73;33.80;;;;;;;-1.42;100.00;99977.88;5025434;28;20399;-75
2022/11/24 05:30:39;;;;;;;36.37;34.63;;;;;;;-1.40;100.00;99984.84;5022676;28;20037;-75
2022/11/24 05:33:14;;;;;;;26.80;25.43;;;;;;;-1.41;100.00;99992.59;5020677;28;20044;-75
2022/11/24 05:35:40;;;;;;;20.00;18.90;;;;;;;-1.50;100.00;99990.56;5021481;28;20118;-75
2022/11/24 05:38:05;;;;;;;19.17;18.07;;;;;;;-1.50;100.00;99985.38;5017579;28;20053;-75
2022/11/24 05:40:31;;;;;;;700.50;365.50;;;;;;;-1.46;100.00;99997.59;5023132;28;20034;-75
2022/11/24 05:42:56;;;;;;;1999.90;999.90;;;;;;;-1.44;100.00;99995.94;5021851;28;20037;-75
2022/11/24 05:45:22;;;;;;;1999.90;999.90;;;;;;;-1.41;100.00;100001.22;5012864;28;20029;-75
2022/11/24 05:47:48;;;;;;;31.17;29.57;;;;;;;-1.41;100.00;100001.22;5022160;28;20038;-74
2022/11/24 05:50:16;;;;;;;32.70;31.03;;;;;;;-1.38;100.00;100008.22;5015293;28;20116;-75
2022/11/24 05:52:41;;;;;;;30.13;28.60;;;;;;;-1.39;100.00;100007.34;5017889;28;20484;-75
2022/11/24 05:55:09;;;;;;;28.30;26.87;;;;;;;-1.37;100.00;100013.41;5020196;28;20049;-75
2022/11/24 05:57:34;;;;;;;36.40;34.60;;;;;;;-1.36;100.00;100010.03;5018555;28;20038;-75
2022/11/24 06:00:00;;;;;;;45.30;43.07;;;;;;;-1.26;100.00;100012.91;5020388;28;20038;-75
2022/11/24 06:02:25;;;;;;;51.43;49.00;;;;;;;-1.17;100.00;100015.81;5021071;28;20033;-75
2022/11/24 06:04:51;;;;;;;56.03;53.40;;;;;;;-1.07;100.00;100014.38;5022768;28;20036;-75
2022/11/24 06:07:17;;;;;;;49.93;47.57;;;;;;;-1.00;100.00;100022.38;5018094;28;20146;-75
2022/11/24 06:09:43;;;;;;;45.63;43.47;;;;;;;-0.94;100.00;100014.84;5022393;28;20034;-75
2022/11/24 06:12:10;;;;;;;35.43;33.73;;;;;;;-0.88;100.00;100015.03;5020872;28;20479;-75
2022/11/24 06:14:36;;;;;;;61.23;58.37;;;;;;;-0.78;100.00;100021.38;5022585;28;20044;-75
2022/11/24 06:17:02;;;;;;;29.13;27.67;;;;;;;-0.73;100.00;100022.41;5023071;28;20033;-75
2022/11/24 06:19:28;;;;;;;82.63;78.97;;;;;;;-0.70;100.00;100029.41;5021751;28;20041;-75
2022/11/24 06:21:53;;;;;;;69.87;66.70;;;;;;;-0.62;100.00;100037.41;5021855;28;20048;-75
2022/11/24 06:24:18;;;;;;;79.43;75.87;;;;;;;-0.61;100.00;100036.56;5022620;28;20034;-75
2022/11/24 06:26:44;;;;;;;68.50;65.40;;;;;;;-0.55;100.00;100036.75;5020109;28;20038;-75
2022/11/24 06:29:09;;;;;;;73.20;69.90;;;;;;;-0.52;100.00;100042.91;5023599;28;20033;-75
2022/11/24 06:31:34;;;;;;;66.27;63.23;;;;;;;-0.40;100.00;100041.50;5023117;28;20029;-75
2022/11/24 06:34:00;;;;;;;66.73;63.80;;;;;;;-0.26;100.00;100053.19;5009590;28;20091;-75
2022/11/24 06:36:26;;;;;;;53.17;50.72;;;;;;;-0.19;100.00;100056.84;5019068;28;20112;-75
2022/11/24 06:38:51;;;;;;;40.27;38.40;;;;;;;-0.23;100.00;100050.69;5020288;28;20034;-75
2022/11/24 06:41:17;;;;;;;35.93;34.23;;;;;;;-0.13;100.00;100044.94;5022337;28;20184;-75
2022/11/24 06:43:43;;;;;;;31.20;29.67;;;;;;;-0.09;100.00;100044.16;5020248;28;20037;-75
2022/11/24 06:46:08;;;;;;;21.03;19.97;;;;;;;0.03;100.00;100045.34;5015747;28;20048;-75
2022/11/24 06:48:34;;;;;;;17.63;16.73;;;;;;;0.13;100.00;100047.38;5021751;28;20021;-75
2022/11/24 06:51:01;;;;;;;16.23;15.32;;;;;;;0.22;100.00;100056.31;5021151;28;20495;-75
2022/11/24 06:53:31;;;;;;;15.82;14.98;;;;;;;0.41;100.00;100056.81;5021130;28;20029;-75
2022/11/24 06:55:58;;;;;;;16.10;15.27;;;;;;;0.42;100.00;100062.06;5002256;28;20083;-75
2022/11/24 06:58:23;;;;;;;17.33;16.42;;;;;;;0.51;100.00;100063.13;5020783;28;20105;-75
2022/11/24 07:00:48;;;;;;;16.77;15.93;;;;;;;0.58;100.00;100070.25;5022102;28;20103;-75
2022/11/24 07:03:15;;;;;;;15.48;14.68;;;;;;;0.67;100.00;100070.47;4992044;28;20076;-75
2022/11/24 07:05:42;;;;;;;17.73;16.80;;;;;;;0.70;100.00;100070.56;5021026;28;20056;-75
2022/11/24 07:08:07;;;;;;;1999.90;999.90;;;;;;;0.77;100.00;100075.09;5017760;28;20107;-75
2022/11/24 07:10:33;;;;;;;1999.90;999.90;;;;;;;0.87;100.00;100073.63;5020602;28;20037;-75
2022/11/24 07:12:58;;;;;;;1999.90;999.90;;;;;;;0.99;100.00;100080.81;5022559;28;20126;-75
2022/11/24 07:15:23;;;;;;;1999.90;999.90;;;;;;;1.11;100.00;100075.06;5016014;28;20041;-75
2022/11/24 07:17:49;;;;;;;1999.90;999.90;;;;;;;1.20;100.00;100080.47;5021243;28;20029;-75
2022/11/24 07:20:14;;;;;;;1999.90;999.90;;;;;;;1.28;100.00;100077.25;5022130;28;20048;-75
2022/11/24 07:22:39;;;;;;;1999.90;999.90;;;;;;;1.39;100.00;100072.28;5022080;28;20052;-75
2022/11/24 07:25:08;;;;;;;1999.90;999.90;;;;;;;1.49;100.00;100073.34;5019423;28;20045;-75
2022/11/24 07:27:34;;;;;;;1999.90;999.90;;;;;;;1.51;100.00;100082.94;5015426;28;20045;-75
2022/11/24 07:29:59;;;;;;;1999.90;999.90;;;;;;;1.60;100.00;100090.13;5020390;28;20046;-75
2022/11/24 07:32:24;;;;;;;1999.90;999.90;;;;;;;1.59;100.00;100088.34;5021151;28;20555;-75
2022/11/24 07:34:50;;;;;;;1999.90;999.90;;;;;;;1.58;100.00;100094.41;5021325;28;20447;-75
2022/11/24 07:37:15;;;;;;;1999.90;999.90;;;;;;;1.48;100.00;100095.03;5019064;28;20034;-75
2022/11/24 07:39:40;;;;;;;1999.90;999.90;;;;;;;1.48;100.00;100095.03;5021288;28;20116;-75
2022/11/24 07:42:07;;;;;;;1999.90;999.90;;;;;;;1.52;100.00;100099.47;5019251;28;20069;-75
2022/11/24 07:44:32;;;;;;;1999.90;999.90;;;;;;;1.59;100.00;100096.13;5021561;28;20033;-75
2022/11/24 07:46:58;;;;;;;1999.90;999.90;;;;;;;1.74;100.00;100106.91;5020435;28;20038;-75
2022/11/24 07:49:24;;;;;;;1999.90;999.90;;;;;;;1.86;100.00;100106.31;5018931;28;20029;-75
2022/11/24 07:51:49;;;;;;;1999.90;999.90;;;;;;;1.91;100.00;100109.00;5014721;28;20036;-75
2022/11/24 07:54:15;;;;;;;1999.90;999.90;;;;;;;1.97;100.00;100103.94;5017981;28;20396;-75
2022/11/24 07:56:40;;;;;;;1999.90;999.90;;;;;;;1.94;100.00;100115.16;5018355;28;20495;-75
2022/11/24 07:59:05;;;;;;;1999.90;999.90;;;;;;;1.86;100.00;100105.41;5016472;28;20401;-75
2022/11/24 08:01:31;;;;;;;1999.90;999.90;;;;;;;1.87;100.00;100102.84;5020333;28;20507;-75
2022/11/24 08:03:56;;;;;;;1999.90;999.90;;;;;;;1.97;100.00;100103.94;5019670;28;20033;-75
2022/11/24 08:06:21;;;;;;;1999.90;999.90;;;;;;;2.08;100.00;100092.03;5018373;28;20524;-75
2022/11/24 08:08:47;;;;;;;1999.90;999.90;;;;;;;2.11;100.00;100091.22;4965119;28;20503;-75
2022/11/24 08:11:16;;;;;;;1999.90;999.90;;;;;;;2.23;100.00;100086.25;5015339;28;20049;-75
2022/11/24 08:13:42;;;;;;;1999.90;999.90;;;;;;;2.37;100.00;100083.94;5021626;28;20025;-75
2022/11/24 08:16:13;;;;;;;1999.90;999.90;;;;;;;2.39;100.00;100097.88;5019877;28;20512;-75
2022/11/24 08:18:40;;;;;;;1999.90;999.90;;;;;;;2.44;100.00;100098.84;5016148;28;20034;-75
2022/11/24 08:21:06;;;;;;;1999.90;999.90;;;;;;;2.54;100.00;100103.38;5018533;28;20044;-75
2022/11/24 08:23:32;;;;;;;1999.90;999.90;;;;;;;2.60;100.00;100108.69;5002524;28;20042;-75
2022/11/24 08:26:03;;;;;;;1999.90;999.90;;;;;;;2.66;100.00;100102.72;5003479;28;20094;-75
2022/11/24 08:28:28;;;;;;;1999.90;999.90;;;;;;;2.57;100.00;100106.03;5024921;28;20041;-75
2022/11/24 08:31:01;;;;;;;1999.90;999.90;;;;;;;2.60;100.00;100108.69;5022791;28;20061;-75
2022/11/24 08:33:26;;;;;;;1999.90;999.90;;;;;;;2.66;100.00;100112.28;5019952;28;20188;-75
2022/11/24 08:35:52;;;;;;;1999.90;999.90;;;;;;;2.69;100.00;100120.13;5021149;28;20579;-75
2022/11/24 08:38:17;;;;;;;1999.90;999.90;;;;;;;2.77;100.00;100123.75;5024376;28;20564;-75
2022/11/24 08:40:43;;;;;;;1999.90;999.90;;;;;;;2.83;100.00;100123.91;5019010;28;20036;-75
2022/11/24 08:43:08;;;;;;;1999.90;999.90;;;;;;;2.88;100.00;100123.97;5004284;28;20129;-75
2022/11/24 08:45:33;;;;;;;1999.90;999.90;;;;;;;2.95;100.00;100118.88;5025078;28;20037;-75
2022/11/24 08:47:59;;;;;;;1999.90;999.90;;;;;;;3.13;100.00;100114.88;5019590;28;20025;-75
2022/11/24 08:50:25;;;;;;;1999.90;999.90;;;;;;;3.31;100.00;100122.13;5020447;28;20052;-75
2022/11/24 08:52:52;;;;;;;1999.90;999.90;;;;;;;3.41;100.00;100132.72;5021711;28;20108;-75
2022/11/24 08:55:17;;;;;;;1999.90;999.90;;;;;;;3.49;100.00;100127.63;5024289;28;20042;-75
2022/11/24 08:57:43;;;;;;;1999.90;999.90;;;;;;;3.56;100.00;100131.22;5021515;28;20109;-75
2022/11/24 09:00:09;;;;;;;1999.90;999.90;;;;;;;3.65;100.00;100132.25;5025202;28;20052;-75
2022/11/24 09:02:34;;;;;;;1999.90;999.90;;;;;;;3.81;100.00;100122.91;5022092;28;20084;-75
2022/11/24 09:05:00;;;;;;;1999.90;999.90;;;;;;;3.99;100.00;100124.91;5019314;28;20033;-75
2022/11/24 09:07:25;;;;;;;1999.90;999.90;;;;;;;4.08;100.00;100122.41;4987553;28;20086;-75
2022/11/24 09:09:51;;;;;;;1999.90;999.90;;;;;;;4.08;100.00;100111.97;5020346;28;20087;-75
2022/11/24 09:12:16;;;;;;;1999.90;999.90;;;;;;;4.10;100.00;100125.91;5021418;28;20029;-75
2022/11/24 09:14:41;;;;;;;1999.90;999.90;;;;;;;4.11;100.00;100126.78;5024657;28;20052;-76
2022/11/24 09:17:07;;;;;;;1999.90;999.90;;;;;;;4.26;100.00;100136.56;5021381;28;20049;-76
2022/11/24 09:19:32;;;;;;;1999.90;999.90;;;;;;;4.38;100.00;100137.63;5024297;28;20037;-76
2022/11/24 09:21:57;;;;;;;1999.90;999.90;;;;;;;4.55;100.00;100136.94;5022696;28;20041;-76
2022/11/24 09:24:23;;;;;;;1999.90;999.90;;;;;;;4.76;100.00;100146.75;5022362;28;20034;-75
2022/11/24 09:26:48;;;;;;;1999.90;999.90;;;;;;;4.92;100.00;100139.97;5023239;28;20099;-75
2022/11/24 09:29:14;;;;;;;1999.90;999.90;;;;;;;5.00;100.00;100143.53;5020381;28;20073;-75
2022/11/24 09:31:39;;;;;;;1999.90;999.90;;;;;;;5.11;100.00;100141.00;5022288;28;20117;-76
2022/11/24 09:34:07;;;;;;;1999.90;999.90;;;;;;;5.24;100.00;100142.91;5024180;28;20077;-76
2022/11/24 09:36:34;;;;;;;1999.90;999.90;;;;;;;5.30;100.00;100142.09;5020415;28;20096;-75
2022/11/24 09:38:59;;;;;;;1999.90;999.90;;;;;;;5.43;100.00;100141.31;5021967;28;20022;-75
2022/11/24 09:41:37;;;;;;;1999.90;999.90;;;;;;;5.48;100.00;100144.88;5021916;28;20040;-75
2022/11/24 09:44:18;;;;;;;1999.90;999.90;;;;;;;5.48;100.00;100139.63;5019507;28;20045;-76
2022/11/24 09:47:01;;;;;;;1999.90;999.90;;;;;;;5.44;100.00;100137.84;5020698;28;20397;-76
2022/11/24 09:49:37;;;;;;;1999.90;999.90;;;;;;;5.51;100.00;100144.88;5016958;28;20034;-76
2022/11/24 09:52:09;;;;;;;1999.90;999.90;;;;;;;5.66;100.00;100138.91;5013773;28;20029;-76
2022/11/24 09:54:40;;;;;;;1999.90;999.90;;;;;;;5.78;100.00;100144.19;5020150;28;20403;-76
2022/11/24 09:57:09;;;;;;;1999.90;999.90;;;;;;;5.87;100.00;100146.03;5015918;28;20044;-76
2022/11/24 09:59:34;;;;;;;1999.90;999.90;;;;;;;5.90;100.00;100136.44;5021010;28;20087;-76
2022/11/24 10:02:00;;;;;;;1999.90;999.90;;;;;;;6.00;100.00;100147.91;5021680;28;20029;-76
2022/11/24 10:04:31;;;;;;;1999.90;999.90;;;;;;;6.07;100.00;100141.81;5021734;28;20120;-76
2022/11/24 10:07:10;;;;;;;1999.90;999.90;;;;;;;6.10;100.00;100144.47;5027138;28;20091;-76
2022/11/24 10:09:48;;;;;;;1999.90;999.90;;;;;;;6.25;100.00;100145.41;5019963;28;20045;-76
2022/11/24 10:12:38;;;;;;;1999.90;999.90;;;;;;;6.40;100.00;100149.84;5019159;28;20519;-76
2022/11/24 10:15:29;;;;;;;1999.90;999.90;;;;;;;6.51;100.00;100153.41;5017026;28;20411;-76
2022/11/24 10:18:32;;;;;;;1999.90;999.90;;;;;;;6.53;100.00;100149.91;5018862;28;20534;-76
2022/11/24 10:21:07;;;;;;;1999.90;999.90;;;;;;;6.59;100.00;100156.91;5022455;28;20416;-76
2022/11/24 10:23:49;;;;;;;1999.90;999.90;;;;;;;6.68;100.00;100154.34;5019190;28;20033;-76
2022/11/24 10:26:18;;;;;;;1999.90;999.90;;;;;;;6.85;99.86;100159.63;5020010;28;20041;-76
2022/11/24 10:28:52;;;;;;;1999.90;999.90;;;;;;;6.84;98.99;100168.38;5022351;28;20859;-76
2022/11/24 10:31:32;;;;;;;1999.90;999.90;;;;;;;6.79;99.14;100168.38;5017675;28;20065;-76
2022/11/24 10:34:03;;;;;;;1999.90;999.90;;;;;;;6.83;99.33;100158.75;5017329;28;20041;-76
2022/11/24 10:36:42;;;;;;;1999.90;999.90;;;;;;;6.90;99.73;100157.03;5023059;28;20044;-76
2022/11/24 10:39:31;;;;;;;1999.90;999.90;;;;;;;6.90;100.00;100155.28;5018849;28;20072;-76
2022/11/24 10:42:04;;;;;;;1999.90;999.90;;;;;;;7.13;100.00;100141.34;5005991;28;20464;-76
2022/11/24 10:44:29;;;;;;;1999.90;999.90;;;;;;;7.32;100.00;100148.34;5018903;28;20038;-76
2022/11/24 10:46:55;;;;;;;1999.90;999.90;;;;;;;7.42;100.00;100144.88;4982767;28;20101;-76
2022/11/24 10:49:27;;;;;;;1999.90;999.90;;;;;;;7.50;100.00;100144.88;5019128;28;20030;-76
2022/11/24 10:52:04;;;;;;;1999.90;999.90;;;;;;;7.65;100.00;100137.00;5022733;28;20083;-76
2022/11/24 10:54:30;;;;;;;1999.90;999.90;;;;;;;7.81;100.00;100132.59;5012807;28;20064;-76
2022/11/24 10:56:56;;;;;;;1999.90;999.90;;;;;;;7.96;100.00;100136.06;5022077;28;20064;-76
2022/11/24 10:59:35;;;;;;;1999.90;999.90;;;;;;;8.08;100.00;100131.66;5019262;28;20038;-75
2022/11/24 11:02:01;;;;;;;1999.90;999.90;;;;;;;8.24;100.00;100127.25;4997126;28;20393;-76
2022/11/24 11:04:28;;;;;;;1999.90;999.90;;;;;;;8.32;99.58;100132.47;5020394;28;20041;-76